createdAt,value
2019-03-22T00:00:00.770Z,92.10
2019-03-22T00:02:35.386Z,92.15
2019-03-22T00:05:11.683Z,92.22
2019-03-22T00:07:48.518Z,92.27
2019-03-22T00:10:23.483Z,92.31
2019-03-22T00:12:58.306Z,91.98
2019-03-22T00:15:32.912Z,91.88
2019-03-22T00:18:07.515Z,91.86
2019-03-22T00:20:42.102Z,91.55
2019-03-22T00:23:18.243Z,91.31
2019-03-22T00:25:53.708Z,91.29
2019-03-22T00:28:29.818Z,90.95
2019-03-22T00:31:04.311Z,91.05
2019-03-22T00:33:38.791Z,91.15
2019-03-22T00:36:13.347Z,91.00
2019-03-22T00:38:47.871Z,90.82
2019-03-22T00:41:22.323Z,90.81
2019-03-22T00:43:56.962Z,91.07
2019-03-22T00:46:31.433Z,91.47
2019-03-22T00:49:06.370Z,91.90
2019-03-22T00:51:41.257Z,92.31
2019-03-22T00:54:17.295Z,92.81
2019-03-22T00:56:51.892Z,93.04
2019-03-22T00:59:26.832Z,92.79
2019-03-22T01:02:01.551Z,91.93
2019-03-22T01:04:36.448Z,91.22
2019-03-22T01:07:11.340Z,91.42
2019-03-22T01:09:45.858Z,91.33
2019-03-22T01:12:20.569Z,91.17
2019-03-22T01:14:55.538Z,91.23
2019-03-22T01:17:31.814Z,91.41
2019-03-22T01:20:06.980Z,91.36
2019-03-22T01:22:41.577Z,91.34
2019-03-22T01:25:17.897Z,91.50
2019-03-22T01:27:52.793Z,90.96
2019-03-22T01:30:27.232Z,91.51
2019-03-22T01:33:01.956Z,92.31
2019-03-22T01:35:40.047Z,92.35
2019-03-22T01:38:14.722Z,92.03
2019-03-22T01:40:49.239Z,91.65
2019-03-22T01:43:24.040Z,91.46
2019-03-22T01:45:58.711Z,91.42
2019-03-22T01:48:33.254Z,91.39
2019-03-22T01:51:09.538Z,91.78
2019-03-22T01:53:45.861Z,92.35
2019-03-22T01:56:21.808Z,93.22
2019-03-22T01:58:56.502Z,93.68
2019-03-22T02:01:31.709Z,93.42
2019-03-22T02:04:06.192Z,92.96
2019-03-22T02:06:40.785Z,92.95
2019-03-22T02:09:17.095Z,93.17
2019-03-22T02:11:51.718Z,93.89
2019-03-22T02:14:26.241Z,94.86
2019-03-22T02:17:02.320Z,94.96
2019-03-22T02:19:37.334Z,94.34
2019-03-22T02:22:12.040Z,93.72
2019-03-22T02:24:46.626Z,92.93
2019-03-22T02:27:21.215Z,92.69
2019-03-22T02:29:56.060Z,92.50
2019-03-22T02:32:30.630Z,92.35
2019-03-22T02:35:07.515Z,92.14
2019-03-22T02:37:42.179Z,91.90
2019-03-22T02:40:17.311Z,92.24
2019-03-22T02:42:52.039Z,92.15
2019-03-22T02:45:26.889Z,92.27
2019-03-22T02:48:31.617Z,92.65
2019-03-22T02:51:07.854Z,92.44
2019-03-22T02:53:42.477Z,92.05
2019-03-22T02:56:18.026Z,92.11
2019-03-22T02:58:52.658Z,92.04
2019-03-22T03:01:27.284Z,91.89
2019-03-22T03:04:01.985Z,91.70
2019-03-22T03:06:36.803Z,91.30
2019-03-22T03:09:11.521Z,92.08
2019-03-22T03:11:46.102Z,91.64
2019-03-22T03:14:22.421Z,90.93
2019-03-22T03:16:56.978Z,90.67
2019-03-22T03:19:31.567Z,91.78
2019-03-22T03:22:07.781Z,93.25
2019-03-22T03:24:42.381Z,93.68
2019-03-22T03:27:16.933Z,93.86
2019-03-22T03:29:53.286Z,94.50
2019-03-22T03:32:27.782Z,95.12
2019-03-22T03:35:02.383Z,95.81
2019-03-22T03:37:38.510Z,96.38
2019-03-22T03:40:13.877Z,96.54
2019-03-22T03:42:48.375Z,96.33
2019-03-22T03:45:37.972Z,95.85
2019-03-22T03:48:14.428Z,95.50
2019-03-22T03:50:50.343Z,95.29
2019-03-22T03:53:25.006Z,95.18
2019-03-22T03:55:59.861Z,94.73
2019-03-22T03:58:34.455Z,94.25
2019-03-22T04:01:09.125Z,94.92
2019-03-22T04:03:43.642Z,95.10
2019-03-22T04:06:18.229Z,95.42
2019-03-22T04:08:54.378Z,95.88
2019-03-22T04:11:28.889Z,96.40
2019-03-22T04:14:03.767Z,96.57
2019-03-22T04:16:39.953Z,96.58
2019-03-22T04:19:14.503Z,96.18
2019-03-22T04:21:55.522Z,95.62
2019-03-22T04:24:30.100Z,94.77
2019-03-22T04:27:04.664Z,93.99
2019-03-22T04:29:39.215Z,93.05
2019-03-22T04:32:16.730Z,93.02
2019-03-22T04:34:51.567Z,92.82
2019-03-22T04:37:26.116Z,92.69
2019-03-22T04:40:00.751Z,92.44
2019-03-22T04:42:35.414Z,92.61
2019-03-22T04:45:10.104Z,92.57
2019-03-22T04:48:04.448Z,93.38
2019-03-22T04:50:43.798Z,94.31
2019-03-22T04:53:23.669Z,94.57
2019-03-22T04:56:04.234Z,94.30
2019-03-22T04:58:42.227Z,94.30
2019-03-22T05:01:19.425Z,94.24
2019-03-22T05:03:58.775Z,93.87
2019-03-22T05:06:34.815Z,93.68
2019-03-22T05:09:14.584Z,93.44
2019-03-22T05:11:53.779Z,93.86
2019-03-22T05:14:30.167Z,94.11
2019-03-22T05:17:06.331Z,94.78
2019-03-22T05:19:45.953Z,95.18
2019-03-22T05:22:26.820Z,94.93
2019-03-22T05:25:04.169Z,95.04
2019-03-22T05:27:43.642Z,95.14
2019-03-22T05:31:29.550Z,95.38
2019-03-22T05:34:06.903Z,95.31
2019-03-22T05:36:41.640Z,95.05
2019-03-22T05:39:17.583Z,95.06
2019-03-22T05:41:52.094Z,95.05
2019-03-22T05:44:27.973Z,95.14
2019-03-22T05:47:21.534Z,94.92
2019-03-22T05:49:55.949Z,94.25
2019-03-22T05:52:30.502Z,93.41
2019-03-22T05:55:08.464Z,93.58
2019-03-22T05:57:43.494Z,93.45
2019-03-22T06:00:18.732Z,93.56
2019-03-22T06:02:53.153Z,92.10
2019-03-22T06:05:28.210Z,91.18
2019-03-22T06:08:02.791Z,91.13
2019-03-22T06:10:37.293Z,91.27
2019-03-22T06:13:12.414Z,91.12
2019-03-22T06:15:47.106Z,90.99
2019-03-22T06:18:21.834Z,90.95
2019-03-22T06:20:56.369Z,91.01
2019-03-22T06:23:31.091Z,91.05
2019-03-22T06:26:05.631Z,90.92
2019-03-22T06:28:40.208Z,90.37
2019-03-22T06:31:14.766Z,89.51
2019-03-22T06:33:49.238Z,89.48
2019-03-22T06:36:24.224Z,89.90
2019-03-22T06:38:58.898Z,89.33
2019-03-22T06:41:33.368Z,88.82
2019-03-22T06:44:08.004Z,87.59
2019-03-22T06:46:42.380Z,87.14
2019-03-22T06:49:17.024Z,84.46
2019-03-22T06:51:51.835Z,82.05
2019-03-22T06:54:31.755Z,79.04
2019-03-22T06:57:03.862Z,77.86
2019-03-22T06:59:38.829Z,78.57
2019-03-22T07:02:13.557Z,79.36
2019-03-22T07:04:48.181Z,79.31
2019-03-22T07:07:27.209Z,80.35
2019-03-22T07:10:01.818Z,78.40
2019-03-22T07:12:36.479Z,77.00
2019-03-22T07:15:11.414Z,74.85
2019-03-22T07:17:47.453Z,73.67
2019-03-22T07:20:22.185Z,72.60
2019-03-22T07:22:56.810Z,68.91
2019-03-22T07:25:31.444Z,65.31
2019-03-22T07:28:06.167Z,62.10
2019-03-22T07:30:40.897Z,58.49
2019-03-22T07:33:17.366Z,58.94
2019-03-22T07:35:51.986Z,60.31
2019-03-22T07:38:26.621Z,57.47
2019-03-22T07:41:01.195Z,56.62
2019-03-22T07:43:35.833Z,56.71
2019-03-22T07:46:10.483Z,55.47
2019-03-22T07:48:45.851Z,56.24
2019-03-22T07:51:20.645Z,58.56
2019-03-22T07:53:55.358Z,58.28
2019-03-22T07:56:31.694Z,58.97
2019-03-22T07:59:06.506Z,64.03
2019-03-22T08:01:41.253Z,60.81
2019-03-22T08:04:15.878Z,59.96
2019-03-22T08:06:51.014Z,61.07
2019-03-22T08:09:25.949Z,62.26
2019-03-22T08:12:01.993Z,60.68
2019-03-22T08:14:37.594Z,59.89
2019-03-22T08:17:16.665Z,58.49
2019-03-22T08:19:51.804Z,56.95
2019-03-22T08:22:26.442Z,61.83
2019-03-22T08:25:01.016Z,63.13
2019-03-22T08:27:35.787Z,64.08
2019-03-22T08:30:10.896Z,64.72
2019-03-22T08:32:45.614Z,62.86
2019-03-22T08:35:22.160Z,59.51
2019-03-22T08:37:57.388Z,59.19
2019-03-22T08:40:32.059Z,57.29
2019-03-22T08:43:07.035Z,55.20
2019-03-22T08:45:41.796Z,56.36
2019-03-22T08:48:16.614Z,61.55
2019-03-22T08:50:51.273Z,60.60
2019-03-22T08:53:25.867Z,57.59
2019-03-22T08:56:01.984Z,58.27
2019-03-22T08:58:36.699Z,57.41
2019-03-22T09:01:11.366Z,56.79
2019-03-22T09:03:46.150Z,59.12
2019-03-22T09:06:21.126Z,61.33
2019-03-22T09:08:57.359Z,60.00
2019-03-22T09:11:31.933Z,63.37
2019-03-22T09:14:10.125Z,62.02
2019-03-22T09:16:47.726Z,64.00
2019-03-22T09:19:22.276Z,64.33
2019-03-22T09:22:00.181Z,64.98
2019-03-22T09:24:39.329Z,66.45
2019-03-22T09:27:11.367Z,67.22
2019-03-22T09:29:47.397Z,67.11
2019-03-22T09:32:22.427Z,66.58
2019-03-22T09:34:59.707Z,65.78
2019-03-22T09:37:33.384Z,66.92
2019-03-22T09:40:08.806Z,68.25
2019-03-22T09:42:43.529Z,68.46
2019-03-22T09:45:20.288Z,66.20
2019-03-22T09:47:55.120Z,66.47
2019-03-22T09:50:29.901Z,66.66
2019-03-22T09:53:04.493Z,66.77
2019-03-22T09:55:39.593Z,65.53
2019-03-22T09:58:14.682Z,66.79
2019-03-22T10:00:49.423Z,65.76
2019-03-22T10:03:24.066Z,66.24
2019-03-22T10:05:58.681Z,67.20
2019-03-22T10:08:33.316Z,67.35
2019-03-22T10:11:09.711Z,67.07
2019-03-22T10:13:44.532Z,66.23
2019-03-22T10:16:19.194Z,64.50
2019-03-22T10:18:54.257Z,65.71
2019-03-22T10:21:29.950Z,64.58
2019-03-22T10:24:04.583Z,63.67
2019-03-22T10:26:39.245Z,64.31
2019-03-22T10:29:14.024Z,65.60
2019-03-22T10:31:48.711Z,64.46
2019-03-22T10:34:25.194Z,64.38
2019-03-22T10:36:59.803Z,63.46
2019-03-22T10:39:34.469Z,63.91
2019-03-22T10:42:09.572Z,63.82
2019-03-22T10:44:44.247Z,62.84
2019-03-22T10:47:19.049Z,62.36
2019-03-22T10:49:53.742Z,61.32
2019-03-22T10:52:28.403Z,61.76
2019-03-22T10:55:23.140Z,61.42
2019-03-22T10:57:40.657Z,60.12
2019-03-22T11:00:18.532Z,62.29
2019-03-22T11:02:53.082Z,61.84
2019-03-22T11:05:29.228Z,60.88
2019-03-22T11:08:04.014Z,62.21
2019-03-22T11:10:40.119Z,60.98
2019-03-22T11:13:14.592Z,61.18
2019-03-22T11:15:49.186Z,61.69
2019-03-22T11:18:23.753Z,59.58
2019-03-22T11:21:05.153Z,58.86
2019-03-22T11:23:35.942Z,58.38
2019-03-22T11:26:10.913Z,57.35
2019-03-22T11:28:47.028Z,57.13
2019-03-22T11:31:28.318Z,56.75
2019-03-22T11:33:57.917Z,56.52
2019-03-22T11:36:32.613Z,56.01
2019-03-22T11:39:15.730Z,55.67
2019-03-22T11:41:48.956Z,56.55
2019-03-22T11:44:23.492Z,56.66
2019-03-22T11:46:58.829Z,56.41
2019-03-22T11:49:33.490Z,56.41
2019-03-22T11:52:08.448Z,54.49
2019-03-22T11:54:44.880Z,53.47
2019-03-22T11:57:21.397Z,54.75
2019-03-22T11:59:56.365Z,56.85
2019-03-22T12:02:30.984Z,56.40
2019-03-22T12:05:06.963Z,56.42
2019-03-22T12:07:41.848Z,56.36
2019-03-22T12:10:18.027Z,56.88
2019-03-22T12:12:52.782Z,56.32
2019-03-22T12:15:28.704Z,54.93
2019-03-22T12:18:05.194Z,55.42
2019-03-22T12:20:39.816Z,55.75
2019-03-22T12:23:14.547Z,53.46
2019-03-22T12:25:49.515Z,53.92
2019-03-22T12:28:23.952Z,53.42
2019-03-22T12:30:58.520Z,50.92
2019-03-22T12:33:33.073Z,51.41
2019-03-22T12:36:07.537Z,53.07
2019-03-22T12:38:42.620Z,52.53
2019-03-22T12:41:18.164Z,53.42
2019-03-22T12:43:52.724Z,53.62
2019-03-22T12:46:27.193Z,53.05
2019-03-22T12:49:03.490Z,52.67
2019-03-22T12:51:38.206Z,52.49
2019-03-22T12:54:14.249Z,52.91
2019-03-22T12:56:48.908Z,52.81
2019-03-22T12:59:23.445Z,52.29
2019-03-22T13:02:00.964Z,52.03
2019-03-22T13:04:35.742Z,52.66
2019-03-22T13:07:10.449Z,52.79
2019-03-22T13:09:45.199Z,53.64
2019-03-22T13:12:19.778Z,52.60
2019-03-22T13:14:54.351Z,52.29
2019-03-22T13:17:29.156Z,51.41
2019-03-22T13:20:04.005Z,52.71
2019-03-22T13:22:38.532Z,52.48
2019-03-22T13:25:13.359Z,50.07
2019-03-22T13:27:49.539Z,50.67
2019-03-22T13:30:49.638Z,50.82
2019-03-22T13:33:26.011Z,50.30
2019-03-22T13:36:00.604Z,48.02
2019-03-22T13:38:35.871Z,49.58
2019-03-22T13:41:10.376Z,49.94
2019-03-22T13:43:44.975Z,50.22
2019-03-22T13:46:19.573Z,50.00
2019-03-22T13:48:54.480Z,49.52
2019-03-22T13:51:28.996Z,48.97
2019-03-22T13:54:05.369Z,49.61
2019-03-22T13:56:39.974Z,50.18
2019-03-22T13:59:14.590Z,51.21
2019-03-22T14:01:49.185Z,52.24
2019-03-22T14:04:23.776Z,53.47
2019-03-22T14:06:58.547Z,52.59
2019-03-22T14:09:33.396Z,53.47
2019-03-22T14:12:07.963Z,52.78
2019-03-22T14:14:44.327Z,52.31
2019-03-22T14:17:18.932Z,53.02
2019-03-22T14:19:53.878Z,53.11
2019-03-22T14:22:28.538Z,52.19
2019-03-22T14:25:05.425Z,51.71
2019-03-22T14:27:40.370Z,51.24
2019-03-22T14:30:15.669Z,51.18
2019-03-22T14:32:50.401Z,51.15
2019-03-22T14:35:25.004Z,50.61
2019-03-22T14:37:59.692Z,51.18
2019-03-22T14:40:34.284Z,51.12
2019-03-22T14:43:08.774Z,50.70
2019-03-22T14:45:43.475Z,51.69
2019-03-22T14:48:17.951Z,52.40
2019-03-22T14:50:53.050Z,52.66
2019-03-22T14:53:28.982Z,51.79
2019-03-22T14:56:04.022Z,53.38
2019-03-22T14:58:38.731Z,52.92
2019-03-22T15:01:13.583Z,53.10
2019-03-22T15:03:48.040Z,53.63
2019-03-22T15:06:22.821Z,53.43
2019-03-22T15:08:57.212Z,54.08
2019-03-22T15:11:32.254Z,54.54
2019-03-22T15:14:25.716Z,54.25
2019-03-22T15:17:23.986Z,54.11
2019-03-22T15:20:23.465Z,54.56
2019-03-22T15:23:15.593Z,55.98
2019-03-22T15:26:18.567Z,56.12
2019-03-22T15:29:26.700Z,56.16
2019-03-22T15:32:35.171Z,55.26
2019-03-22T15:35:33.314Z,55.49
2019-03-22T15:38:29.738Z,55.81
2019-03-22T15:41:05.481Z,56.06
2019-03-22T15:43:40.228Z,55.92
2019-03-22T15:46:14.939Z,55.38
2019-03-22T15:48:49.888Z,55.79
2019-03-22T15:51:24.603Z,55.85
2019-03-22T15:53:59.038Z,56.31
2019-03-22T15:56:33.755Z,56.01
2019-03-22T15:59:08.517Z,55.79
2019-03-22T16:01:44.552Z,56.55
2019-03-22T16:04:19.084Z,57.42
2019-03-22T16:06:54.102Z,57.77
2019-03-22T16:09:28.671Z,58.27
2019-03-22T16:12:04.488Z,58.04
2019-03-22T16:14:40.451Z,57.77
2019-03-22T16:17:15.086Z,57.44
2019-03-22T16:19:49.607Z,57.91
2019-03-22T16:22:24.164Z,58.83
2019-03-22T16:24:58.868Z,59.25
2019-03-22T16:27:33.888Z,60.05
2019-03-22T16:30:09.304Z,60.71
2019-03-22T16:32:44.378Z,61.35
2019-03-22T16:35:19.187Z,61.52
2019-03-22T16:37:55.276Z,61.91
2019-03-22T16:40:30.206Z,62.05
2019-03-22T16:43:04.846Z,62.63
2019-03-22T16:45:41.906Z,63.10
2019-03-22T16:48:16.629Z,63.30
2019-03-22T16:50:52.692Z,63.88
2019-03-22T16:53:27.362Z,63.70
2019-03-22T16:56:02.230Z,63.97
2019-03-22T16:58:38.317Z,64.65
2019-03-22T17:01:12.959Z,64.93
2019-03-22T17:03:47.566Z,65.36
2019-03-22T17:06:22.533Z,65.44
2019-03-22T17:09:00.908Z,65.36
2019-03-22T17:11:35.526Z,65.60
2019-03-22T17:14:11.289Z,65.92
2019-03-22T17:16:46.527Z,66.13
2019-03-22T17:19:21.105Z,66.33
2019-03-22T17:21:55.751Z,66.75
2019-03-22T17:24:30.748Z,67.22
2019-03-22T17:27:05.224Z,67.66
2019-03-22T17:29:39.984Z,67.67
2019-03-22T17:32:15.053Z,67.95
2019-03-22T17:34:49.884Z,68.34
2019-03-22T17:37:26.074Z,68.75
2019-03-22T17:40:01.079Z,69.27
2019-03-22T17:42:37.107Z,69.64
2019-03-22T17:45:12.573Z,69.67
2019-03-22T17:47:47.145Z,69.24
2019-03-22T17:50:22.094Z,69.52
2019-03-22T17:52:58.110Z,69.40
2019-03-22T17:55:32.904Z,69.43
2019-03-22T17:58:07.520Z,69.71
2019-03-22T18:00:45.053Z,69.89
2019-03-22T18:03:21.019Z,69.50
2019-03-22T18:05:56.992Z,69.56
2019-03-22T18:08:31.671Z,69.51
2019-03-22T18:11:06.977Z,70.05
2019-03-22T18:13:41.621Z,69.95
2019-03-22T18:16:16.234Z,69.83
2019-03-22T18:18:52.783Z,69.52
2019-03-22T18:21:28.034Z,69.65
2019-03-22T18:24:02.984Z,69.84
2019-03-22T18:26:38.173Z,70.02
2019-03-22T18:29:13.091Z,69.77
2019-03-22T18:31:47.973Z,69.94
2019-03-22T18:34:33.766Z,70.10
2019-03-22T18:40:51.802Z,69.77
2019-03-22T18:43:26.377Z,69.36
2019-03-22T18:46:01.568Z,69.52
2019-03-22T18:48:36.212Z,69.68
2019-03-22T18:51:11.266Z,69.99
2019-03-22T18:53:46.050Z,70.03
2019-03-22T18:56:21.526Z,69.74
2019-03-22T18:58:56.230Z,69.92
2019-03-22T19:01:30.969Z,70.35
2019-03-22T19:04:05.536Z,70.54
2019-03-22T19:06:40.387Z,70.56
2019-03-22T19:09:15.088Z,70.42
2019-03-22T19:11:51.301Z,70.59
2019-03-22T19:14:27.126Z,70.66
2019-03-22T19:17:02.465Z,71.01
2019-03-22T19:19:37.579Z,71.02
2019-03-22T19:22:12.770Z,71.09
2019-03-22T19:24:47.726Z,71.38
2019-03-22T19:27:22.552Z,71.74
2019-03-22T19:29:57.592Z,72.01
2019-03-22T19:32:32.728Z,72.29
2019-03-22T19:35:09.002Z,72.49
2019-03-22T19:37:43.542Z,73.04
2019-03-22T19:40:18.384Z,73.21
2019-03-22T19:42:57.832Z,73.71
2019-03-22T19:45:33.508Z,73.43
2019-03-22T19:48:08.195Z,73.79
2019-03-22T19:50:42.867Z,74.05
2019-03-22T19:53:17.966Z,74.31
2019-03-22T19:55:53.127Z,74.86
2019-03-22T19:58:36.448Z,75.04
2019-03-22T20:01:11.627Z,75.22
2019-03-22T20:03:47.259Z,75.66
2019-03-22T20:06:23.116Z,75.93
2019-03-22T20:08:58.584Z,76.15
2019-03-22T20:11:33.348Z,76.37
2019-03-22T20:14:08.130Z,76.82
2019-03-22T20:16:44.337Z,76.98
2019-03-22T20:19:20.335Z,77.20
2019-03-22T20:21:56.334Z,77.74
2019-03-22T20:24:33.398Z,77.78
2019-03-22T20:27:09.458Z,77.86
2019-03-22T20:29:44.437Z,78.01
2019-03-22T20:32:20.968Z,78.31
2019-03-22T20:34:55.828Z,78.53
2019-03-22T20:37:30.439Z,79.02
2019-03-22T20:40:07.119Z,79.32
2019-03-22T20:42:45.594Z,79.79
2019-03-22T20:45:24.393Z,79.99
2019-03-22T20:47:59.494Z,80.43
2019-03-22T20:50:36.119Z,80.64
2019-03-22T20:53:10.022Z,81.02
2019-03-22T20:55:46.389Z,81.11
2019-03-22T20:58:21.456Z,81.36
2019-03-22T21:00:58.526Z,81.54
2019-03-22T21:03:34.702Z,81.52
2019-03-22T21:06:09.256Z,82.11
2019-03-22T21:08:44.479Z,82.39
2019-03-22T21:11:20.200Z,82.39
2019-03-22T21:13:55.252Z,82.36
2019-03-22T21:16:30.264Z,82.57
2019-03-22T21:19:05.167Z,82.39
2019-03-22T21:21:39.938Z,82.29
2019-03-22T21:24:16.436Z,82.58
2019-03-22T21:26:51.426Z,82.59
2019-03-22T21:29:26.087Z,82.94
2019-03-22T21:32:02.653Z,83.34
2019-03-22T21:34:37.288Z,83.70
2019-03-22T21:37:12.409Z,84.04
2019-03-22T21:39:47.591Z,84.12
2019-03-22T21:42:24.043Z,84.54
2019-03-22T21:45:00.611Z,84.50
2019-03-22T21:47:35.317Z,85.32
2019-03-22T21:50:10.147Z,85.41
2019-03-22T21:52:44.878Z,85.03
2019-03-22T21:55:19.388Z,85.04
2019-03-22T21:57:53.985Z,85.30
2019-03-22T22:00:28.677Z,85.24
2019-03-22T22:03:05.136Z,85.27
2019-03-22T22:05:47.448Z,85.22
2019-03-22T22:08:16.095Z,85.30
2019-03-22T22:10:59.323Z,85.00
2019-03-22T22:13:27.266Z,84.74
2019-03-22T22:16:03.807Z,84.83
2019-03-22T22:18:38.601Z,84.95
2019-03-22T22:21:13.305Z,85.31
2019-03-22T22:23:47.916Z,85.58
2019-03-22T22:26:22.497Z,86.39
2019-03-22T22:29:00.710Z,86.68
2019-03-22T22:31:37.053Z,87.05
2019-03-22T22:34:11.698Z,87.25
2019-03-22T22:36:46.247Z,87.48
2019-03-22T22:39:20.980Z,87.56
2019-03-22T22:41:55.639Z,87.62
2019-03-22T22:44:31.639Z,87.98
2019-03-22T22:47:06.312Z,88.06
2019-03-22T22:49:40.750Z,88.20
2019-03-22T22:52:15.312Z,88.42
2019-03-22T22:54:49.825Z,88.51
2019-03-22T22:57:24.473Z,88.80
2019-03-22T22:59:59.378Z,88.84
2019-03-22T23:02:34.032Z,89.12
2019-03-22T23:05:08.795Z,89.34
2019-03-22T23:07:43.581Z,89.58
2019-03-22T23:10:20.989Z,89.31
2019-03-22T23:12:55.823Z,89.54
2019-03-22T23:15:30.313Z,89.87
2019-03-22T23:18:06.797Z,89.94
2019-03-22T23:20:43.162Z,90.10
2019-03-22T23:23:18.135Z,89.87
2019-03-22T23:25:52.927Z,89.95
2019-03-22T23:28:28.011Z,90.01
2019-03-22T23:31:02.429Z,90.02
2019-03-22T23:33:37.827Z,90.32
2019-03-22T23:36:20.182Z,90.12
2019-03-22T23:38:48.856Z,90.14
2019-03-22T23:41:24.807Z,90.61
2019-03-22T23:43:59.464Z,90.78
2019-03-22T23:46:33.983Z,90.89
2019-03-22T23:49:08.566Z,90.84
2019-03-22T23:51:43.288Z,90.98
2019-03-22T23:54:17.909Z,91.11
2019-03-22T23:56:52.652Z,91.28
2019-03-22T23:59:27.308Z,91.15
